Arklow Rock — PBZM — position and weather

sailwx.info

Track history (hours):
 
Tides and Currents Weather Stations Pressure Air Temp Water Temp Dewpoint Dewpoint Depression Visibility Wind Speed Wind Dir Waves Ship Positions

Arklow Rock

Last reported at 2014-Aug-30 08:28 UTC. Time now 2014-Sep-02 04:13 UTC.
Position N 58°44' W 002°47'.

Length 90 m; draft 6.1 m.

Type: Cargo ship. MMSI: 246002000.

Date/timePositionNaut miles runAvg speedWind from/ knotsBaromVisibWave heightAir tempDewpointWater temp
2014-Aug-30 08:28N 58°44' W 002°47'910.0
2014-Aug-30 07:33N 58°43' W 003°04'9 8.9
2014-Aug-30 06:31N 58°43' W 003°22'9 9.1
2014-Aug-30 05:33N 58°42' W 003°39'1010.0
2014-Aug-30 04:33N 58°41' W 003°58'58 9.6
2014-Aug-29 22:33N 58°15' W 005°36'1111.1
2014-Aug-29 21:33N 58°06' W 005°48'129 8.6
2014-Aug-29 06:26N 55°56' W 005°46'1011.5
2014-Aug-29 05:33N 55°46' W 005°48'1211.7
2014-Aug-29 04:33N 55°35' W 005°50'1313.0
2014-Aug-29 03:33N 55°22' W 005°52'2612.8
2014-Aug-29 01:32N 54°57' W 005°36'1010.7
2014-Aug-29 00:33N 54°48' W 005°30'10 9.8
2014-Aug-28 23:33N 54°38' W 005°24'9 9.4
2014-Aug-28 22:33N 54°29' W 005°20'9 8.8
2014-Aug-28 21:33N 54°21' W 005°23'  
2014-Aug-24 17:08N 52°31' W 005°59'711.9
2014-Aug-24 16:32N 52°24' W 005°58'286 7.3
2014-Aug-23 01:33N 51°03' E 001°24'10 9.6
2014-Aug-23 00:28N 51°10' E 001°36'8 8.9
2014-Aug-22 23:33N 51°18' E 001°40'9 9.4
2014-Aug-22 22:33N 51°27' E 001°44'1110.7
2014-Aug-22 21:33N 51°38' E 001°44'1111.5
2014-Aug-22 20:33N 51°49' E 001°42'10 9.7
2014-Aug-22 19:33N 51°55' E 001°30'8 8.5
2014-Aug-22 18:34N 51°58' E 001°17'6 6.3
2014-Aug-22 17:33N 52°02' E 001°09'0 0.0
2014-Aug-22 16:33N 52°02' E 001°09'0 0.0
2014-Aug-22 15:33N 52°02' E 001°09'0 0.0
2014-Aug-22 14:33N 52°02' E 001°09'0 0.0
2014-Aug-22 13:33N 52°02' E 001°09'0 0.0
2014-Aug-22 12:33N 52°02' E 001°09'0 0.0
2014-Aug-22 11:33N 52°02' E 001°09'0 0.0
2014-Aug-22 10:33N 52°02' E 001°09'0 0.0
2014-Aug-22 09:33N 52°02' E 001°09'0 0.0
2014-Aug-22 08:33N 52°02' E 001°09'0 0.0
2014-Aug-22 07:33N 52°02' E 001°09'0 0.0
2014-Aug-22 06:32N 52°02' E 001°09'0 0.0
2014-Aug-22 05:32N 52°02' E 001°09'0 0.0
2014-Aug-22 04:32N 52°02' E 001°09'0 0.0
2014-Aug-22 03:32N 52°02' E 001°09'0 0.0
2014-Aug-22 02:32N 52°02' E 001°09'0 0.0
2014-Aug-22 01:26N 52°02' E 001°09'0 0.0
2014-Aug-22 00:32N 52°02' E 001°09'0 0.0
2014-Aug-21 23:32N 52°02' E 001°09'0 0.0
2014-Aug-21 22:29N 52°02' E 001°09'0 0.0
2014-Aug-21 21:29N 52°02' E 001°09'0 0.0
2014-Aug-21 20:32N 52°02' E 001°09'0 0.0
2014-Aug-21 19:29N 52°02' E 001°09'0 0.0
2014-Aug-21 18:32N 52°02' E 001°09'0 0.0
2014-Aug-21 17:32N 52°02' E 001°09'0 0.0
2014-Aug-21 16:32N 52°02' E 001°09'0 0.0
2014-Aug-21 15:32N 52°02' E 001°09'0 0.0
2014-Aug-21 14:32N 52°02' E 001°09'0 0.0
2014-Aug-21 13:29N 52°02' E 001°09'0 0.0
2014-Aug-21 12:32N 52°02' E 001°09'0 0.0
2014-Aug-21 11:32N 52°02' E 001°09'0 0.0
2014-Aug-21 10:32N 52°02' E 001°09'0 0.0
2014-Aug-21 09:32N 52°02' E 001°10'0 0.0
2014-Aug-21 08:29N 52°02' E 001°10'0 0.0
2014-Aug-21 07:29N 52°02' E 001°10'0 0.0
2014-Aug-21 06:32N 52°02' E 001°09'0 0.0
2014-Aug-21 05:32N 52°02' E 001°10'0 0.0
2014-Aug-21 04:32N 52°02' E 001°10'0 0.0
2014-Aug-21 03:32N 52°02' E 001°09'0 0.0
2014-Aug-21 02:32N 52°02' E 001°10'0 0.0
2014-Aug-21 01:32N 52°02' E 001°09'3 2.8
2014-Aug-21 00:33N 52°00' E 001°12'8 7.6
2014-Aug-20 23:33N 51°56' E 001°23'7 7.0
2014-Aug-20 22:33N 51°55' E 001°34'3 3.4
2014-Aug-20 21:33N 51°52' E 001°37'4 4.2
2014-Aug-20 20:33N 51°51' E 001°44'9 8.7
2014-Aug-20 19:33N 51°43' E 001°48'1111.1
2014-Aug-20 18:33N 51°32' E 001°46'1111.5
2014-Aug-20 17:33N 51°21' E 001°41'1010.4
2014-Aug-20 16:34N 51°11' E 001°37'6 6.1
2014-Aug-20 15:33N 51°05' E 001°37'4310.7
2014-Aug-20 11:33N 50°31' E 000°54'1211.8
2014-Aug-20 10:33N 50°28' E 000°36'1211.7
2014-Aug-20 09:32N 50°25' E 000°18'  
Track history (hours):
 
Tides and Currents Weather Stations Pressure Air Temp Water Temp Dewpoint Dewpoint Depression Visibility Wind Speed Wind Dir Waves Ship Positions

Arklow Rock

Last reported at 2014-Aug-30 08:28 UTC. Time now 2014-Sep-02 04:13 UTC.
Position N 58°44' W 002°47'.

Length 90 m; draft 6.1 m.

Type: Cargo ship. MMSI: 246002000.

Date/timePositionNaut miles runAvg speedWind from/ knotsBaromVisibWave heightAir tempDewpointWater temp
2014-Aug-30 08:28N 58°44' W 002°47'910.0
2014-Aug-30 07:33N 58°43' W 003°04'9 8.9
2014-Aug-30 06:31N 58°43' W 003°22'9 9.1
2014-Aug-30 05:33N 58°42' W 003°39'1010.0
2014-Aug-30 04:33N 58°41' W 003°58'58 9.6
2014-Aug-29 22:33N 58°15' W 005°36'1111.1
2014-Aug-29 21:33N 58°06' W 005°48'129 8.6
2014-Aug-29 06:26N 55°56' W 005°46'1011.5
2014-Aug-29 05:33N 55°46' W 005°48'1211.7
2014-Aug-29 04:33N 55°35' W 005°50'1313.0
2014-Aug-29 03:33N 55°22' W 005°52'2612.8
2014-Aug-29 01:32N 54°57' W 005°36'1010.7
2014-Aug-29 00:33N 54°48' W 005°30'10 9.8
2014-Aug-28 23:33N 54°38' W 005°24'9 9.4
2014-Aug-28 22:33N 54°29' W 005°20'9 8.8
2014-Aug-28 21:33N 54°21' W 005°23'  
2014-Aug-24 17:08N 52°31' W 005°59'711.9
2014-Aug-24 16:32N 52°24' W 005°58'286 7.3
2014-Aug-23 01:33N 51°03' E 001°24'10 9.6
2014-Aug-23 00:28N 51°10' E 001°36'8 8.9
2014-Aug-22 23:33N 51°18' E 001°40'9 9.4
2014-Aug-22 22:33N 51°27' E 001°44'1110.7
2014-Aug-22 21:33N 51°38' E 001°44'1111.5
2014-Aug-22 20:33N 51°49' E 001°42'10 9.7
2014-Aug-22 19:33N 51°55' E 001°30'8 8.5
2014-Aug-22 18:34N 51°58' E 001°17'6 6.3
2014-Aug-22 17:33N 52°02' E 001°09'0 0.0
2014-Aug-22 16:33N 52°02' E 001°09'0 0.0
2014-Aug-22 15:33N 52°02' E 001°09'0 0.0
2014-Aug-22 14:33N 52°02' E 001°09'0 0.0
2014-Aug-22 13:33N 52°02' E 001°09'0 0.0
2014-Aug-22 12:33N 52°02' E 001°09'0 0.0
2014-Aug-22 11:33N 52°02' E 001°09'0 0.0
2014-Aug-22 10:33N 52°02' E 001°09'0 0.0
2014-Aug-22 09:33N 52°02' E 001°09'0 0.0
2014-Aug-22 08:33N 52°02' E 001°09'0 0.0
2014-Aug-22 07:33N 52°02' E 001°09'0 0.0
2014-Aug-22 06:32N 52°02' E 001°09'0 0.0
2014-Aug-22 05:32N 52°02' E 001°09'0 0.0
2014-Aug-22 04:32N 52°02' E 001°09'0 0.0
2014-Aug-22 03:32N 52°02' E 001°09'0 0.0
2014-Aug-22 02:32N 52°02' E 001°09'0 0.0
2014-Aug-22 01:26N 52°02' E 001°09'0 0.0
2014-Aug-22 00:32N 52°02' E 001°09'0 0.0
2014-Aug-21 23:32N 52°02' E 001°09'0 0.0
2014-Aug-21 22:29N 52°02' E 001°09'0 0.0
2014-Aug-21 21:29N 52°02' E 001°09'0 0.0
2014-Aug-21 20:32N 52°02' E 001°09'0 0.0
2014-Aug-21 19:29N 52°02' E 001°09'0 0.0
2014-Aug-21 18:32N 52°02' E 001°09'0 0.0
2014-Aug-21 17:32N 52°02' E 001°09'0 0.0
2014-Aug-21 16:32N 52°02' E 001°09'0 0.0
2014-Aug-21 15:32N 52°02' E 001°09'0 0.0
2014-Aug-21 14:32N 52°02' E 001°09'0 0.0
2014-Aug-21 13:29N 52°02' E 001°09'0 0.0
2014-Aug-21 12:32N 52°02' E 001°09'0 0.0
2014-Aug-21 11:32N 52°02' E 001°09'0 0.0
2014-Aug-21 10:32N 52°02' E 001°09'0 0.0
2014-Aug-21 09:32N 52°02' E 001°10'0 0.0
2014-Aug-21 08:29N 52°02' E 001°10'0 0.0
2014-Aug-21 07:29N 52°02' E 001°10'0 0.0
2014-Aug-21 06:32N 52°02' E 001°09'0 0.0
2014-Aug-21 05:32N 52°02' E 001°10'0 0.0
2014-Aug-21 04:32N 52°02' E 001°10'0 0.0
2014-Aug-21 03:32N 52°02' E 001°09'0 0.0
2014-Aug-21 02:32N 52°02' E 001°10'0 0.0
2014-Aug-21 01:32N 52°02' E 001°09'3 2.8
2014-Aug-21 00:33N 52°00' E 001°12'8 7.6
2014-Aug-20 23:33N 51°56' E 001°23'7 7.0
2014-Aug-20 22:33N 51°55' E 001°34'3 3.4
2014-Aug-20 21:33N 51°52' E 001°37'4 4.2
2014-Aug-20 20:33N 51°51' E 001°44'9 8.7
2014-Aug-20 19:33N 51°43' E 001°48'1111.1
2014-Aug-20 18:33N 51°32' E 001°46'1111.5
2014-Aug-20 17:33N 51°21' E 001°41'1010.4
2014-Aug-20 16:34N 51°11' E 001°37'6 6.1
2014-Aug-20 15:33N 51°05' E 001°37'4310.7
2014-Aug-20 11:33N 50°31' E 000°54'1211.8
2014-Aug-20 10:33N 50°28' E 000°36'1211.7
2014-Aug-20 09:32N 50°25' E 000°18'  

Dump ship's entire track history